sensor_id;sensor_type;location;lat;lon;timestamp;P1;durP1;ratioP1;P2;durP2;ratioP2
17953;SDS011;9102;53.548;9.926;2023-09-18T00:02:14;8.65;;;6.10;;
17953;SDS011;9102;53.548;9.926;2023-09-18T00:04:41;8.68;;;6.15;;
17953;SDS011;9102;53.548;9.926;2023-09-18T00:07:07;7.18;;;5.60;;
17953;SDS011;9102;53.548;9.926;2023-09-18T00:09:36;8.68;;;6.07;;
17953;SDS011;9102;53.548;9.926;2023-09-18T00:12:03;8.90;;;6.07;;
17953;SDS011;9102;53.548;9.926;2023-09-18T00:14:30;7.95;;;6.50;;
17953;SDS011;9102;53.548;9.926;2023-09-18T00:16:58;9.68;;;6.57;;
17953;SDS011;9102;53.548;9.926;2023-09-18T00:19:25;9.57;;;6.75;;
17953;SDS011;9102;53.548;9.926;2023-09-18T00:21:52;9.38;;;6.72;;
17953;SDS011;9102;53.548;9.926;2023-09-18T00:24:19;8.60;;;6.63;;
17953;SDS011;9102;53.548;9.926;2023-09-18T00:26:47;7.72;;;6.10;;
17953;SDS011;9102;53.548;9.926;2023-09-18T00:29:14;8.63;;;6.05;;
17953;SDS011;9102;53.548;9.926;2023-09-18T00:31:40;10.07;;;5.93;;
17953;SDS011;9102;53.548;9.926;2023-09-18T00:34:09;8.07;;;6.30;;
17953;SDS011;9102;53.548;9.926;2023-09-18T00:36:35;10.90;;;6.18;;
17953;SDS011;9102;53.548;9.926;2023-09-18T00:39:03;13.18;;;6.65;;
17953;SDS011;9102;53.548;9.926;2023-09-18T00:41:30;8.40;;;6.28;;
17953;SDS011;9102;53.548;9.926;2023-09-18T00:47:19;9.38;;;5.75;;
17953;SDS011;9102;53.548;9.926;2023-09-18T00:49:47;6.50;;;5.65;;
17953;SDS011;9102;53.548;9.926;2023-09-18T00:52:16;10.82;;;6.07;;
17953;SDS011;9102;53.548;9.926;2023-09-18T00:54:45;9.63;;;5.80;;
17953;SDS011;9102;53.548;9.926;2023-09-18T00:57:13;7.57;;;5.47;;
17953;SDS011;9102;53.548;9.926;2023-09-18T00:59:40;8.88;;;5.82;;
17953;SDS011;9102;53.548;9.926;2023-09-18T01:02:07;9.93;;;6.03;;
17953;SDS011;9102;53.548;9.926;2023-09-18T01:04:34;9.55;;;6.05;;
17953;SDS011;9102;53.548;9.926;2023-09-18T01:07:02;7.63;;;5.63;;
17953;SDS011;9102;53.548;9.926;2023-09-18T01:09:29;8.48;;;5.50;;
17953;SDS011;9102;53.548;9.926;2023-09-18T01:12:01;11.15;;;5.95;;
17953;SDS011;9102;53.548;9.926;2023-09-18T01:14:33;6.63;;;5.10;;
17953;SDS011;9102;53.548;9.926;2023-09-18T01:17:06;7.57;;;4.95;;
17953;SDS011;9102;53.548;9.926;2023-09-18T01:19:36;6.40;;;5.05;;
17953;SDS011;9102;53.548;9.926;2023-09-18T01:22:06;6.07;;;5.10;;
17953;SDS011;9102;53.548;9.926;2023-09-18T01:24:35;13.57;;;5.90;;
17953;SDS011;9102;53.548;9.926;2023-09-18T01:27:03;6.50;;;5.80;;
17953;SDS011;9102;53.548;9.926;2023-09-18T01:29:31;8.25;;;5.35;;
17953;SDS011;9102;53.548;9.926;2023-09-18T01:31:58;8.43;;;5.90;;
17953;SDS011;9102;53.548;9.926;2023-09-18T01:34:25;7.03;;;5.55;;
17953;SDS011;9102;53.548;9.926;2023-09-18T01:36:57;8.75;;;5.60;;
17953;SDS011;9102;53.548;9.926;2023-09-18T01:39:24;10.40;;;5.80;;
17953;SDS011;9102;53.548;9.926;2023-09-18T01:41:57;7.30;;;5.70;;
17953;SDS011;9102;53.548;9.926;2023-09-18T01:44:25;7.38;;;5.53;;
17953;SDS011;9102;53.548;9.926;2023-09-18T01:46:52;8.77;;;5.60;;
17953;SDS011;9102;53.548;9.926;2023-09-18T01:49:26;6.95;;;5.38;;
17953;SDS011;9102;53.548;9.926;2023-09-18T01:51:53;8.95;;;5.43;;
17953;SDS011;9102;53.548;9.926;2023-09-18T01:54:20;8.82;;;5.75;;
17953;SDS011;9102;53.548;9.926;2023-09-18T01:56:47;8.90;;;6.05;;
17953;SDS011;9102;53.548;9.926;2023-09-18T01:59:15;7.90;;;6.20;;
17953;SDS011;9102;53.548;9.926;2023-09-18T02:01:42;8.02;;;5.80;;
17953;SDS011;9102;53.548;9.926;2023-09-18T02:04:08;13.73;;;5.95;;
17953;SDS011;9102;53.548;9.926;2023-09-18T02:06:35;8.85;;;6.07;;
17953;SDS011;9102;53.548;9.926;2023-09-18T02:09:02;6.63;;;5.93;;
17953;SDS011;9102;53.548;9.926;2023-09-18T02:11:29;8.07;;;5.70;;
17953;SDS011;9102;53.548;9.926;2023-09-18T02:13:56;10.07;;;6.55;;
17953;SDS011;9102;53.548;9.926;2023-09-18T02:16:24;8.30;;;6.30;;
17953;SDS011;9102;53.548;9.926;2023-09-18T02:18:53;10.55;;;6.28;;
17953;SDS011;9102;53.548;9.926;2023-09-18T02:21:21;11.35;;;6.82;;
17953;SDS011;9102;53.548;9.926;2023-09-18T02:23:49;8.45;;;6.90;;
17953;SDS011;9102;53.548;9.926;2023-09-18T02:26:16;10.35;;;6.72;;
17953;SDS011;9102;53.548;9.926;2023-09-18T02:28:43;8.63;;;6.20;;
17953;SDS011;9102;53.548;9.926;2023-09-18T02:31:10;10.90;;;5.90;;
17953;SDS011;9102;53.548;9.926;2023-09-18T02:33:38;8.40;;;6.30;;
17953;SDS011;9102;53.548;9.926;2023-09-18T02:36:05;9.82;;;6.55;;
17953;SDS011;9102;53.548;9.926;2023-09-18T02:38:32;10.23;;;6.68;;
17953;SDS011;9102;53.548;9.926;2023-09-18T02:40:59;8.88;;;6.28;;
17953;SDS011;9102;53.548;9.926;2023-09-18T02:43:26;10.50;;;6.15;;
17953;SDS011;9102;53.548;9.926;2023-09-18T02:45:53;8.10;;;6.55;;
17953;SDS011;9102;53.548;9.926;2023-09-18T02:48:20;8.40;;;6.70;;
17953;SDS011;9102;53.548;9.926;2023-09-18T02:50:48;10.15;;;6.10;;
17953;SDS011;9102;53.548;9.926;2023-09-18T02:53:16;6.88;;;6.07;;
17953;SDS011;9102;53.548;9.926;2023-09-18T02:55:44;8.60;;;6.10;;
17953;SDS011;9102;53.548;9.926;2023-09-18T02:58:11;6.32;;;5.43;;
17953;SDS011;9102;53.548;9.926;2023-09-18T03:00:40;6.53;;;5.78;;
17953;SDS011;9102;53.548;9.926;2023-09-18T03:03:08;7.30;;;5.90;;
17953;SDS011;9102;53.548;9.926;2023-09-18T03:05:35;9.40;;;6.03;;
17953;SDS011;9102;53.548;9.926;2023-09-18T03:08:04;7.63;;;5.80;;
17953;SDS011;9102;53.548;9.926;2023-09-18T03:10:32;8.63;;;5.85;;
17953;SDS011;9102;53.548;9.926;2023-09-18T03:13:00;8.65;;;5.97;;
17953;SDS011;9102;53.548;9.926;2023-09-18T03:15:27;7.13;;;5.80;;
17953;SDS011;9102;53.548;9.926;2023-09-18T03:17:54;7.22;;;5.82;;
17953;SDS011;9102;53.548;9.926;2023-09-18T03:20:22;7.00;;;5.78;;
17953;SDS011;9102;53.548;9.926;2023-09-18T03:22:50;6.60;;;5.57;;
17953;SDS011;9102;53.548;9.926;2023-09-18T03:25:18;10.90;;;6.22;;
17953;SDS011;9102;53.548;9.926;2023-09-18T03:27:45;8.50;;;5.95;;
17953;SDS011;9102;53.548;9.926;2023-09-18T03:30:12;7.95;;;6.00;;
17953;SDS011;9102;53.548;9.926;2023-09-18T03:32:40;7.18;;;6.32;;
17953;SDS011;9102;53.548;9.926;2023-09-18T03:35:07;8.02;;;6.47;;
17953;SDS011;9102;53.548;9.926;2023-09-18T03:37:40;9.77;;;6.20;;
17953;SDS011;9102;53.548;9.926;2023-09-18T03:40:08;7.43;;;6.40;;
17953;SDS011;9102;53.548;9.926;2023-09-18T03:42:36;8.93;;;6.22;;
17953;SDS011;9102;53.548;9.926;2023-09-18T03:45:05;9.38;;;6.63;;
17953;SDS011;9102;53.548;9.926;2023-09-18T03:47:33;7.18;;;5.75;;
17953;SDS011;9102;53.548;9.926;2023-09-18T03:50:01;9.13;;;6.25;;
17953;SDS011;9102;53.548;9.926;2023-09-18T03:52:27;10.65;;;6.28;;
17953;SDS011;9102;53.548;9.926;2023-09-18T03:54:54;7.72;;;6.40;;
17953;SDS011;9102;53.548;9.926;2023-09-18T03:57:21;7.35;;;5.97;;
17953;SDS011;9102;53.548;9.926;2023-09-18T03:59:49;9.82;;;6.40;;
17953;SDS011;9102;53.548;9.926;2023-09-18T04:02:16;7.80;;;6.50;;
17953;SDS011;9102;53.548;9.926;2023-09-18T04:04:43;11.90;;;6.47;;
17953;SDS011;9102;53.548;9.926;2023-09-18T04:07:10;7.05;;;6.25;;
17953;SDS011;9102;53.548;9.926;2023-09-18T04:09:41;8.85;;;6.43;;
17953;SDS011;9102;53.548;9.926;2023-09-18T04:12:08;7.60;;;5.97;;
17953;SDS011;9102;53.548;9.926;2023-09-18T04:14:35;10.43;;;7.07;;
17953;SDS011;9102;53.548;9.926;2023-09-18T04:17:03;8.15;;;6.55;;
17953;SDS011;9102;53.548;9.926;2023-09-18T04:19:30;10.70;;;6.88;;
17953;SDS011;9102;53.548;9.926;2023-09-18T04:21:57;7.45;;;6.63;;
17953;SDS011;9102;53.548;9.926;2023-09-18T04:24:25;9.13;;;6.38;;
17953;SDS011;9102;53.548;9.926;2023-09-18T04:26:52;7.13;;;6.43;;
17953;SDS011;9102;53.548;9.926;2023-09-18T04:29:19;7.25;;;6.00;;
17953;SDS011;9102;53.548;9.926;2023-09-18T04:31:46;7.75;;;6.95;;
17953;SDS011;9102;53.548;9.926;2023-09-18T04:34:14;8.10;;;6.57;;
17953;SDS011;9102;53.548;9.926;2023-09-18T04:36:41;8.38;;;6.40;;
17953;SDS011;9102;53.548;9.926;2023-09-18T04:39:09;7.68;;;6.47;;
17953;SDS011;9102;53.548;9.926;2023-09-18T04:41:36;11.43;;;7.25;;
17953;SDS011;9102;53.548;9.926;2023-09-18T04:44:03;7.78;;;6.80;;
17953;SDS011;9102;53.548;9.926;2023-09-18T04:46:31;8.93;;;6.80;;
17953;SDS011;9102;53.548;9.926;2023-09-18T04:48:58;9.25;;;6.97;;
17953;SDS011;9102;53.548;9.926;2023-09-18T04:51:26;11.00;;;7.18;;
17953;SDS011;9102;53.548;9.926;2023-09-18T04:53:53;7.50;;;6.50;;
17953;SDS011;9102;53.548;9.926;2023-09-18T04:56:20;9.32;;;6.82;;
17953;SDS011;9102;53.548;9.926;2023-09-18T04:58:47;7.78;;;6.97;;
17953;SDS011;9102;53.548;9.926;2023-09-18T05:01:14;9.85;;;7.65;;
17953;SDS011;9102;53.548;9.926;2023-09-18T05:03:41;10.38;;;7.22;;
17953;SDS011;9102;53.548;9.926;2023-09-18T05:06:08;8.50;;;7.20;;
17953;SDS011;9102;53.548;9.926;2023-09-18T05:08:36;9.98;;;7.13;;
17953;SDS011;9102;53.548;9.926;2023-09-18T05:11:04;8.27;;;6.82;;
17953;SDS011;9102;53.548;9.926;2023-09-18T05:13:31;9.15;;;6.75;;
17953;SDS011;9102;53.548;9.926;2023-09-18T05:15:58;8.23;;;7.05;;
17953;SDS011;9102;53.548;9.926;2023-09-18T05:18:25;12.60;;;7.25;;
17953;SDS011;9102;53.548;9.926;2023-09-18T05:20:52;9.65;;;7.65;;
17953;SDS011;9102;53.548;9.926;2023-09-18T05:23:19;12.10;;;8.10;;
17953;SDS011;9102;53.548;9.926;2023-09-18T05:29:09;9.65;;;7.13;;
17953;SDS011;9102;53.548;9.926;2023-09-18T05:31:36;13.35;;;8.30;;
17953;SDS011;9102;53.548;9.926;2023-09-18T05:34:03;11.90;;;7.63;;
17953;SDS011;9102;53.548;9.926;2023-09-18T05:39:52;9.60;;;6.78;;
17953;SDS011;9102;53.548;9.926;2023-09-18T05:42:18;12.18;;;7.68;;
17953;SDS011;9102;53.548;9.926;2023-09-18T05:44:47;12.02;;;7.50;;
17953;SDS011;9102;53.548;9.926;2023-09-18T05:47:14;15.20;;;8.10;;
17953;SDS011;9102;53.548;9.926;2023-09-18T05:49:41;11.13;;;6.65;;
17953;SDS011;9102;53.548;9.926;2023-09-18T05:52:08;9.48;;;7.63;;
17953;SDS011;9102;53.548;9.926;2023-09-18T05:54:34;9.38;;;7.30;;
17953;SDS011;9102;53.548;9.926;2023-09-18T05:57:01;14.02;;;6.75;;
17953;SDS011;9102;53.548;9.926;2023-09-18T05:59:28;12.60;;;7.05;;
17953;SDS011;9102;53.548;9.926;2023-09-18T06:01:57;8.18;;;6.63;;
17953;SDS011;9102;53.548;9.926;2023-09-18T06:04:24;9.15;;;6.90;;
17953;SDS011;9102;53.548;9.926;2023-09-18T06:06:51;11.80;;;7.03;;
17953;SDS011;9102;53.548;9.926;2023-09-18T06:09:18;7.97;;;6.97;;
17953;SDS011;9102;53.548;9.926;2023-09-18T06:11:45;9.60;;;6.65;;
17953;SDS011;9102;53.548;9.926;2023-09-18T06:14:12;7.68;;;6.60;;
17953;SDS011;9102;53.548;9.926;2023-09-18T06:16:38;9.98;;;6.70;;
17953;SDS011;9102;53.548;9.926;2023-09-18T06:19:07;7.75;;;6.53;;
17953;SDS011;9102;53.548;9.926;2023-09-18T06:21:33;10.55;;;6.50;;
17953;SDS011;9102;53.548;9.926;2023-09-18T06:24:03;9.23;;;6.32;;
17953;SDS011;9102;53.548;9.926;2023-09-18T06:26:30;11.50;;;6.93;;
17953;SDS011;9102;53.548;9.926;2023-09-18T06:28:57;8.50;;;6.93;;
17953;SDS011;9102;53.548;9.926;2023-09-18T06:31:23;9.80;;;6.63;;
17953;SDS011;9102;53.548;9.926;2023-09-18T06:33:51;16.23;;;10.38;;
17953;SDS011;9102;53.548;9.926;2023-09-18T06:39:41;11.32;;;6.70;;
17953;SDS011;9102;53.548;9.926;2023-09-18T06:42:08;9.00;;;6.20;;
17953;SDS011;9102;53.548;9.926;2023-09-18T06:44:35;9.90;;;7.13;;
17953;SDS011;9102;53.548;9.926;2023-09-18T06:47:02;8.15;;;6.32;;
17953;SDS011;9102;53.548;9.926;2023-09-18T06:49:29;10.27;;;6.15;;
17953;SDS011;9102;53.548;9.926;2023-09-18T06:51:56;10.75;;;6.57;;
17953;SDS011;9102;53.548;9.926;2023-09-18T06:54:23;9.38;;;7.85;;
17953;SDS011;9102;53.548;9.926;2023-09-18T06:56:51;14.57;;;6.93;;
17953;SDS011;9102;53.548;9.926;2023-09-18T06:59:18;7.72;;;6.53;;
17953;SDS011;9102;53.548;9.926;2023-09-18T07:01:45;10.30;;;6.40;;
17953;SDS011;9102;53.548;9.926;2023-09-18T07:04:12;8.50;;;6.93;;
17953;SDS011;9102;53.548;9.926;2023-09-18T07:06:39;9.05;;;6.93;;
17953;SDS011;9102;53.548;9.926;2023-09-18T07:09:06;10.30;;;6.18;;
17953;SDS011;9102;53.548;9.926;2023-09-18T07:11:33;10.85;;;7.10;;
17953;SDS011;9102;53.548;9.926;2023-09-18T07:14:01;10.32;;;7.35;;
17953;SDS011;9102;53.548;9.926;2023-09-18T07:16:31;9.95;;;7.32;;
17953;SDS011;9102;53.548;9.926;2023-09-18T07:18:57;8.18;;;6.65;;
17953;SDS011;9102;53.548;9.926;2023-09-18T07:21:24;7.47;;;6.32;;
17953;SDS011;9102;53.548;9.926;2023-09-18T07:23:51;8.05;;;6.15;;
17953;SDS011;9102;53.548;9.926;2023-09-18T07:26:18;9.68;;;6.18;;
17953;SDS011;9102;53.548;9.926;2023-09-18T07:28:45;6.75;;;5.55;;
17953;SDS011;9102;53.548;9.926;2023-09-18T07:31:13;8.40;;;5.78;;
17953;SDS011;9102;53.548;9.926;2023-09-18T07:33:40;8.23;;;5.85;;
17953;SDS011;9102;53.548;9.926;2023-09-18T07:36:07;8.40;;;5.68;;
17953;SDS011;9102;53.548;9.926;2023-09-18T07:38:35;12.05;;;6.32;;
17953;SDS011;9102;53.548;9.926;2023-09-18T07:41:02;14.00;;;5.90;;
17953;SDS011;9102;53.548;9.926;2023-09-18T07:43:29;7.03;;;6.20;;
17953;SDS011;9102;53.548;9.926;2023-09-18T07:45:56;9.55;;;6.28;;
17953;SDS011;9102;53.548;9.926;2023-09-18T07:48:26;8.32;;;5.88;;
17953;SDS011;9102;53.548;9.926;2023-09-18T07:50:52;8.07;;;5.80;;
17953;SDS011;9102;53.548;9.926;2023-09-18T07:53:20;7.38;;;6.18;;
17953;SDS011;9102;53.548;9.926;2023-09-18T07:55:47;6.90;;;5.85;;
17953;SDS011;9102;53.548;9.926;2023-09-18T07:58:15;7.50;;;5.78;;
17953;SDS011;9102;53.548;9.926;2023-09-18T08:00:41;6.60;;;5.57;;
17953;SDS011;9102;53.548;9.926;2023-09-18T08:03:08;6.82;;;5.45;;
17953;SDS011;9102;53.548;9.926;2023-09-18T08:05:37;8.45;;;5.47;;
17953;SDS011;9102;53.548;9.926;2023-09-18T08:08:04;6.55;;;5.35;;
17953;SDS011;9102;53.548;9.926;2023-09-18T08:10:31;7.50;;;5.78;;
17953;SDS011;9102;53.548;9.926;2023-09-18T08:12:58;8.57;;;5.82;;
17953;SDS011;9102;53.548;9.926;2023-09-18T08:15:25;7.03;;;5.45;;
17953;SDS011;9102;53.548;9.926;2023-09-18T08:17:52;7.50;;;5.63;;
17953;SDS011;9102;53.548;9.926;2023-09-18T08:20:19;8.43;;;5.80;;
17953;SDS011;9102;53.548;9.926;2023-09-18T08:22:47;7.43;;;6.05;;
17953;SDS011;9102;53.548;9.926;2023-09-18T08:25:15;8.57;;;5.85;;
17953;SDS011;9102;53.548;9.926;2023-09-18T08:27:42;9.55;;;5.85;;
17953;SDS011;9102;53.548;9.926;2023-09-18T08:30:10;7.30;;;5.53;;
17953;SDS011;9102;53.548;9.926;2023-09-18T08:32:37;7.07;;;5.78;;
17953;SDS011;9102;53.548;9.926;2023-09-18T08:35:04;7.82;;;6.43;;
17953;SDS011;9102;53.548;9.926;2023-09-18T08:37:32;8.35;;;5.60;;
17953;SDS011;9102;53.548;9.926;2023-09-18T08:40:00;8.82;;;5.90;;
17953;SDS011;9102;53.548;9.926;2023-09-18T08:42:34;6.70;;;6.00;;
17953;SDS011;9102;53.548;9.926;2023-09-18T08:45:02;6.85;;;6.15;;
17953;SDS011;9102;53.548;9.926;2023-09-18T08:47:32;7.43;;;6.25;;
17953;SDS011;9102;53.548;9.926;2023-09-18T08:50:00;12.27;;;6.13;;
17953;SDS011;9102;53.548;9.926;2023-09-18T08:52:27;9.15;;;6.55;;
17953;SDS011;9102;53.548;9.926;2023-09-18T08:54:54;9.13;;;6.68;;
17953;SDS011;9102;53.548;9.926;2023-09-18T08:57:23;9.32;;;6.20;;
17953;SDS011;9102;53.548;9.926;2023-09-18T08:59:52;8.85;;;5.80;;
17953;SDS011;9102;53.548;9.926;2023-09-18T09:02:22;7.80;;;6.20;;
17953;SDS011;9102;53.548;9.926;2023-09-18T09:04:49;8.02;;;5.53;;
17953;SDS011;9102;53.548;9.926;2023-09-18T09:07:16;11.80;;;6.53;;
17953;SDS011;9102;53.548;9.926;2023-09-18T09:09:43;6.82;;;5.70;;
17953;SDS011;9102;53.548;9.926;2023-09-18T09:12:10;7.53;;;5.88;;
17953;SDS011;9102;53.548;9.926;2023-09-18T09:14:38;12.75;;;6.70;;
17953;SDS011;9102;53.548;9.926;2023-09-18T09:17:06;9.45;;;6.05;;
17953;SDS011;9102;53.548;9.926;2023-09-18T09:19:33;7.72;;;5.68;;
17953;SDS011;9102;53.548;9.926;2023-09-18T09:22:03;7.55;;;5.75;;
17953;SDS011;9102;53.548;9.926;2023-09-18T09:24:36;6.47;;;5.15;;
17953;SDS011;9102;53.548;9.926;2023-09-18T09:27:04;12.63;;;5.47;;
17953;SDS011;9102;53.548;9.926;2023-09-18T09:29:31;11.80;;;5.68;;
17953;SDS011;9102;53.548;9.926;2023-09-18T09:32:04;8.48;;;5.30;;
17953;SDS011;9102;53.548;9.926;2023-09-18T09:34:38;11.93;;;5.80;;
17953;SDS011;9102;53.548;9.926;2023-09-18T09:37:06;10.05;;;5.50;;
17953;SDS011;9102;53.548;9.926;2023-09-18T09:39:33;7.75;;;5.72;;
17953;SDS011;9102;53.548;9.926;2023-09-18T09:42:00;10.63;;;4.72;;
17953;SDS011;9102;53.548;9.926;2023-09-18T09:44:31;12.93;;;4.97;;
17953;SDS011;9102;53.548;9.926;2023-09-18T09:46:58;11.02;;;5.30;;
17953;SDS011;9102;53.548;9.926;2023-09-18T09:49:27;11.77;;;4.68;;
17953;SDS011;9102;53.548;9.926;2023-09-18T09:51:58;10.32;;;4.30;;
17953;SDS011;9102;53.548;9.926;2023-09-18T09:54:31;11.68;;;4.95;;
17953;SDS011;9102;53.548;9.926;2023-09-18T09:57:04;7.28;;;4.20;;
17953;SDS011;9102;53.548;9.926;2023-09-18T09:59:31;8.95;;;5.00;;
17953;SDS011;9102;53.548;9.926;2023-09-18T10:02:00;8.50;;;4.30;;
17953;SDS011;9102;53.548;9.926;2023-09-18T10:04:29;9.35;;;3.70;;
17953;SDS011;9102;53.548;9.926;2023-09-18T10:07:04;8.73;;;4.15;;
17953;SDS011;9102;53.548;9.926;2023-09-18T10:09:33;7.13;;;3.53;;
17953;SDS011;9102;53.548;9.926;2023-09-18T10:12:02;10.48;;;4.40;;
17953;SDS011;9102;53.548;9.926;2023-09-18T10:14:35;10.63;;;4.50;;
17953;SDS011;9102;53.548;9.926;2023-09-18T10:17:16;8.85;;;3.58;;
17953;SDS011;9102;53.548;9.926;2023-09-18T10:19:49;8.70;;;4.35;;
17953;SDS011;9102;53.548;9.926;2023-09-18T10:22:21;6.65;;;3.95;;
17953;SDS011;9102;53.548;9.926;2023-09-18T10:25:00;8.02;;;4.00;;
17953;SDS011;9102;53.548;9.926;2023-09-18T10:27:34;7.80;;;4.60;;
17953;SDS011;9102;53.548;9.926;2023-09-18T10:30:04;8.73;;;4.10;;
17953;SDS011;9102;53.548;9.926;2023-09-18T10:32:36;8.13;;;3.78;;
17953;SDS011;9102;53.548;9.926;2023-09-18T10:35:06;9.05;;;3.63;;
17953;SDS011;9102;53.548;9.926;2023-09-18T10:37:34;7.60;;;4.03;;
17953;SDS011;9102;53.548;9.926;2023-09-18T10:40:02;5.35;;;3.45;;
17953;SDS011;9102;53.548;9.926;2023-09-18T10:42:33;7.65;;;4.10;;
17953;SDS011;9102;53.548;9.926;2023-09-18T10:45:01;6.13;;;3.95;;
17953;SDS011;9102;53.548;9.926;2023-09-18T10:47:29;8.75;;;3.92;;
17953;SDS011;9102;53.548;9.926;2023-09-18T10:49:57;7.35;;;3.97;;
17953;SDS011;9102;53.548;9.926;2023-09-18T10:52:27;7.22;;;3.65;;
17953;SDS011;9102;53.548;9.926;2023-09-18T10:54:54;8.52;;;4.32;;
17953;SDS011;9102;53.548;9.926;2023-09-18T10:57:20;6.63;;;3.85;;
17953;SDS011;9102;53.548;9.926;2023-09-18T10:59:47;7.47;;;3.97;;
17953;SDS011;9102;53.548;9.926;2023-09-18T11:02:14;11.02;;;4.35;;
17953;SDS011;9102;53.548;9.926;2023-09-18T11:04:42;9.65;;;3.85;;
17953;SDS011;9102;53.548;9.926;2023-09-18T11:07:19;8.60;;;3.78;;
17953;SDS011;9102;53.548;9.926;2023-09-18T11:09:47;12.05;;;4.00;;
17953;SDS011;9102;53.548;9.926;2023-09-18T11:12:15;8.13;;;4.07;;
17953;SDS011;9102;53.548;9.926;2023-09-18T11:14:44;8.73;;;3.72;;
17953;SDS011;9102;53.548;9.926;2023-09-18T11:17:30;7.22;;;3.58;;
17953;SDS011;9102;53.548;9.926;2023-09-18T11:20:02;9.25;;;3.53;;
17953;SDS011;9102;53.548;9.926;2023-09-18T11:22:45;7.35;;;3.88;;
17953;SDS011;9102;53.548;9.926;2023-09-18T11:28:13;6.95;;;3.40;;
17953;SDS011;9102;53.548;9.926;2023-09-18T11:30:48;6.45;;;3.75;;
17953;SDS011;9102;53.548;9.926;2023-09-18T11:33:16;6.25;;;3.95;;
17953;SDS011;9102;53.548;9.926;2023-09-18T11:35:56;9.45;;;3.63;;
17953;SDS011;9102;53.548;9.926;2023-09-18T11:38:24;9.32;;;3.05;;
17953;SDS011;9102;53.548;9.926;2023-09-18T11:40:52;9.40;;;3.20;;
17953;SDS011;9102;53.548;9.926;2023-09-18T11:43:20;9.50;;;3.72;;
17953;SDS011;9102;53.548;9.926;2023-09-18T11:45:50;10.10;;;3.83;;
17953;SDS011;9102;53.548;9.926;2023-09-18T11:48:18;8.45;;;3.50;;
17953;SDS011;9102;53.548;9.926;2023-09-18T11:50:48;11.80;;;3.70;;
17953;SDS011;9102;53.548;9.926;2023-09-18T11:53:15;9.10;;;3.28;;
17953;SDS011;9102;53.548;9.926;2023-09-18T11:55:44;9.45;;;3.50;;
17953;SDS011;9102;53.548;9.926;2023-09-18T11:58:12;5.63;;;2.90;;
17953;SDS011;9102;53.548;9.926;2023-09-18T12:00:39;5.35;;;3.20;;
17953;SDS011;9102;53.548;9.926;2023-09-18T12:03:15;11.95;;;3.20;;
17953;SDS011;9102;53.548;9.926;2023-09-18T12:05:51;10.88;;;2.70;;
17953;SDS011;9102;53.548;9.926;2023-09-18T12:08:18;9.00;;;2.50;;
17953;SDS011;9102;53.548;9.926;2023-09-18T12:10:48;7.22;;;3.10;;
17953;SDS011;9102;53.548;9.926;2023-09-18T12:13:17;10.80;;;2.78;;
17953;SDS011;9102;53.548;9.926;2023-09-18T12:15:43;7.13;;;2.97;;
17953;SDS011;9102;53.548;9.926;2023-09-18T12:18:11;6.80;;;2.70;;
17953;SDS011;9102;53.548;9.926;2023-09-18T12:20:44;10.43;;;2.90;;
17953;SDS011;9102;53.548;9.926;2023-09-18T12:23:12;10.70;;;2.65;;
17953;SDS011;9102;53.548;9.926;2023-09-18T12:25:39;8.75;;;2.67;;
17953;SDS011;9102;53.548;9.926;2023-09-18T12:28:06;9.90;;;2.60;;
17953;SDS011;9102;53.548;9.926;2023-09-18T12:30:35;9.10;;;2.78;;
17953;SDS011;9102;53.548;9.926;2023-09-18T12:33:01;7.72;;;2.50;;
17953;SDS011;9102;53.548;9.926;2023-09-18T12:35:29;6.45;;;3.22;;
17953;SDS011;9102;53.548;9.926;2023-09-18T12:37:57;11.45;;;3.38;;
17953;SDS011;9102;53.548;9.926;2023-09-18T12:40:25;8.73;;;2.78;;
17953;SDS011;9102;53.548;9.926;2023-09-18T12:42:54;8.63;;;2.65;;
17953;SDS011;9102;53.548;9.926;2023-09-18T12:45:22;8.55;;;2.80;;
17953;SDS011;9102;53.548;9.926;2023-09-18T12:47:53;10.90;;;2.63;;
17953;SDS011;9102;53.548;9.926;2023-09-18T12:50:21;6.10;;;2.78;;
17953;SDS011;9102;53.548;9.926;2023-09-18T12:52:48;7.93;;;2.85;;
17953;SDS011;9102;53.548;9.926;2023-09-18T12:55:24;5.85;;;2.50;;
17953;SDS011;9102;53.548;9.926;2023-09-18T12:57:52;5.53;;;2.75;;
17953;SDS011;9102;53.548;9.926;2023-09-18T13:00:21;7.95;;;2.67;;
17953;SDS011;9102;53.548;9.926;2023-09-18T13:02:52;11.88;;;2.80;;
17953;SDS011;9102;53.548;9.926;2023-09-18T13:05:21;10.35;;;3.20;;
17953;SDS011;9102;53.548;9.926;2023-09-18T13:07:50;10.43;;;3.08;;
17953;SDS011;9102;53.548;9.926;2023-09-18T13:10:18;7.82;;;2.50;;
17953;SDS011;9102;53.548;9.926;2023-09-18T13:12:47;6.32;;;2.50;;
17953;SDS011;9102;53.548;9.926;2023-09-18T13:15:23;6.05;;;2.10;;
17953;SDS011;9102;53.548;9.926;2023-09-18T13:17:53;6.72;;;2.30;;
17953;SDS011;9102;53.548;9.926;2023-09-18T13:20:21;5.43;;;2.20;;
17953;SDS011;9102;53.548;9.926;2023-09-18T13:22:50;6.97;;;2.55;;
17953;SDS011;9102;53.548;9.926;2023-09-18T13:25:21;4.88;;;1.80;;
17953;SDS011;9102;53.548;9.926;2023-09-18T13:27:49;7.25;;;2.42;;
17953;SDS011;9102;53.548;9.926;2023-09-18T13:30:16;4.35;;;2.33;;
17953;SDS011;9102;53.548;9.926;2023-09-18T13:32:45;6.93;;;2.50;;
17953;SDS011;9102;53.548;9.926;2023-09-18T13:35:14;11.75;;;2.47;;
17953;SDS011;9102;53.548;9.926;2023-09-18T13:37:42;9.73;;;2.22;;
17953;SDS011;9102;53.548;9.926;2023-09-18T13:40:09;5.35;;;2.08;;
17953;SDS011;9102;53.548;9.926;2023-09-18T13:42:37;6.88;;;2.35;;
17953;SDS011;9102;53.548;9.926;2023-09-18T13:45:05;7.00;;;2.50;;
17953;SDS011;9102;53.548;9.926;2023-09-18T13:47:33;9.90;;;2.17;;
17953;SDS011;9102;53.548;9.926;2023-09-18T13:50:03;7.13;;;2.65;;
17953;SDS011;9102;53.548;9.926;2023-09-18T13:52:32;9.05;;;2.38;;
17953;SDS011;9102;53.548;9.926;2023-09-18T13:55:00;3.75;;;1.80;;
17953;SDS011;9102;53.548;9.926;2023-09-18T13:57:30;4.03;;;1.80;;
17953;SDS011;9102;53.548;9.926;2023-09-18T13:59:57;4.55;;;2.35;;
17953;SDS011;9102;53.548;9.926;2023-09-18T14:02:24;9.60;;;2.97;;
17953;SDS011;9102;53.548;9.926;2023-09-18T14:04:52;9.30;;;2.20;;
17953;SDS011;9102;53.548;9.926;2023-09-18T14:07:19;8.73;;;2.67;;
17953;SDS011;9102;53.548;9.926;2023-09-18T14:09:48;8.68;;;2.40;;
17953;SDS011;9102;53.548;9.926;2023-09-18T14:12:15;4.07;;;1.77;;
17953;SDS011;9102;53.548;9.926;2023-09-18T14:14:42;5.35;;;2.65;;
17953;SDS011;9102;53.548;9.926;2023-09-18T14:17:10;6.30;;;2.35;;
17953;SDS011;9102;53.548;9.926;2023-09-18T14:19:37;9.38;;;2.40;;
17953;SDS011;9102;53.548;9.926;2023-09-18T14:22:04;5.40;;;2.42;;
17953;SDS011;9102;53.548;9.926;2023-09-18T14:24:31;6.53;;;2.00;;
17953;SDS011;9102;53.548;9.926;2023-09-18T14:27:00;6.25;;;2.60;;
17953;SDS011;9102;53.548;9.926;2023-09-18T14:29:27;5.70;;;2.45;;
17953;SDS011;9102;53.548;9.926;2023-09-18T14:31:55;5.32;;;2.20;;
17953;SDS011;9102;53.548;9.926;2023-09-18T14:34:22;4.32;;;2.47;;
17953;SDS011;9102;53.548;9.926;2023-09-18T14:36:49;4.53;;;2.13;;
17953;SDS011;9102;53.548;9.926;2023-09-18T14:39:16;6.72;;;2.20;;
17953;SDS011;9102;53.548;9.926;2023-09-18T14:41:43;3.33;;;2.00;;
17953;SDS011;9102;53.548;9.926;2023-09-18T14:44:11;9.88;;;2.80;;
17953;SDS011;9102;53.548;9.926;2023-09-18T14:46:38;5.43;;;2.15;;
17953;SDS011;9102;53.548;9.926;2023-09-18T14:49:04;4.55;;;2.30;;
17953;SDS011;9102;53.548;9.926;2023-09-18T14:51:32;6.15;;;2.42;;
17953;SDS011;9102;53.548;9.926;2023-09-18T14:54:00;4.90;;;1.90;;
17953;SDS011;9102;53.548;9.926;2023-09-18T14:56:29;5.65;;;2.22;;
17953;SDS011;9102;53.548;9.926;2023-09-18T14:58:56;4.85;;;2.25;;
17953;SDS011;9102;53.548;9.926;2023-09-18T15:01:25;5.15;;;2.20;;
17953;SDS011;9102;53.548;9.926;2023-09-18T15:03:51;7.43;;;2.05;;
17953;SDS011;9102;53.548;9.926;2023-09-18T15:06:19;7.55;;;2.33;;
17953;SDS011;9102;53.548;9.926;2023-09-18T15:08:46;4.47;;;1.73;;
17953;SDS011;9102;53.548;9.926;2023-09-18T15:11:14;6.35;;;1.80;;
17953;SDS011;9102;53.548;9.926;2023-09-18T15:13:42;7.32;;;2.30;;
17953;SDS011;9102;53.548;9.926;2023-09-18T15:16:09;5.38;;;1.80;;
17953;SDS011;9102;53.548;9.926;2023-09-18T15:18:37;6.13;;;2.10;;
17953;SDS011;9102;53.548;9.926;2023-09-18T15:21:04;4.38;;;1.80;;